createdAt,value
2023-01-07T00:00:52.386Z,10.40
2023-01-07T00:03:20.712Z,10.40
2023-01-07T00:05:49.952Z,10.30
2023-01-07T00:08:17.866Z,10.80
2023-01-07T00:10:45.703Z,10.40
2023-01-07T00:13:13.603Z,10.40
2023-01-07T00:15:41.507Z,10.40
2023-01-07T00:18:09.388Z,10.40
2023-01-07T00:20:37.254Z,10.40
2023-01-07T00:23:06.505Z,10.40
2023-01-07T00:25:34.415Z,10.40
2023-01-07T00:28:02.916Z,10.40
2023-01-07T00:30:30.800Z,10.40
2023-01-07T00:33:05.077Z,10.40
2023-01-07T00:35:33.265Z,10.30
2023-01-07T00:38:01.132Z,10.40
2023-01-07T00:40:31.525Z,10.40
2023-01-07T00:43:02.418Z,10.40
2023-01-07T00:45:30.888Z,10.40
2023-01-07T00:47:59.091Z,10.40
2023-01-07T00:50:27.785Z,10.40
2023-01-07T00:52:56.175Z,10.40
2023-01-07T00:55:24.465Z,10.40
2023-01-07T00:57:54.085Z,10.40
2023-01-07T01:00:23.127Z,10.40
2023-01-07T01:02:51.523Z,10.40
2023-01-07T01:05:19.853Z,10.40
2023-01-07T01:07:47.724Z,10.40
2023-01-07T01:10:16.618Z,10.40
2023-01-07T01:12:45.013Z,10.40
2023-01-07T01:15:15.189Z,10.40
2023-01-07T01:17:43.275Z,10.30
2023-01-07T01:20:12.978Z,10.40
2023-01-07T01:22:40.822Z,10.40
2023-01-07T01:25:09.256Z,10.40
2023-01-07T01:27:37.363Z,10.40
2023-01-07T01:30:05.918Z,10.40
2023-01-07T01:32:35.156Z,10.40
2023-01-07T01:35:03.024Z,10.40
2023-01-07T01:37:30.884Z,10.40
2023-01-07T01:39:58.752Z,10.30
2023-01-07T01:42:26.797Z,10.30
2023-01-07T01:44:55.539Z,10.30
2023-01-07T01:47:26.519Z,10.30
2023-01-07T01:49:58.017Z,10.40
2023-01-07T01:52:30.021Z,10.40
2023-01-07T01:55:00.167Z,10.40
2023-01-07T01:57:29.229Z,10.40
2023-01-07T01:59:57.447Z,10.40
2023-01-07T02:02:27.105Z,10.40
2023-01-07T02:04:56.141Z,10.40
2023-01-07T02:07:25.351Z,10.40
2023-01-07T02:09:58.527Z,10.40
2023-01-07T02:12:33.279Z,10.50
2023-01-07T02:15:06.924Z,10.40
2023-01-07T02:17:40.374Z,10.50
2023-01-07T02:20:41.447Z,10.50
2023-01-07T02:23:39.345Z,10.50
2023-01-07T02:26:25.069Z,10.50
2023-01-07T02:29:10.436Z,10.60
2023-01-07T02:31:52.268Z,10.60
2023-01-07T02:34:21.437Z,10.60
2023-01-07T02:36:52.351Z,10.60
2023-01-07T02:39:28.271Z,10.60
2023-01-07T02:41:58.819Z,10.60
2023-01-07T02:44:33.596Z,10.60
2023-01-07T02:47:07.063Z,10.60
2023-01-07T02:49:35.969Z,10.60
2023-01-07T02:52:17.334Z,10.60
2023-01-07T02:54:45.386Z,10.60
2023-01-07T02:57:22.183Z,10.60
2023-01-07T03:00:04.565Z,10.60
2023-01-07T03:02:43.277Z,10.60
2023-01-07T03:05:27.099Z,11.00
2023-01-07T03:08:03.354Z,10.70
2023-01-07T03:10:33.434Z,11.20
2023-01-07T03:13:03.375Z,10.70
2023-01-07T03:15:36.891Z,11.00
2023-01-07T03:18:07.608Z,10.80
2023-01-07T03:20:37.875Z,10.90
2023-01-07T03:25:36.087Z,10.80
2023-01-07T03:28:04.579Z,10.70
2023-01-07T03:30:32.807Z,10.70
2023-01-07T03:33:01.880Z,10.70
2023-01-07T03:35:31.940Z,10.60
2023-01-07T03:38:01.573Z,10.70
2023-01-07T03:40:29.720Z,10.60
2023-01-07T03:42:56.595Z,10.60
2023-01-07T03:45:25.949Z,10.60
2023-01-07T03:47:55.473Z,10.50
2023-01-07T03:50:23.800Z,10.20
2023-01-07T03:52:55.058Z,10.50
2023-01-07T03:55:22.948Z,10.60
2023-01-07T03:57:50.763Z,10.60
2023-01-07T04:02:46.786Z,10.50
2023-01-07T04:05:14.971Z,10.40
2023-01-07T04:07:42.810Z,10.40
2023-01-07T04:10:12.166Z,10.40
2023-01-07T04:12:40.088Z,10.30
2023-01-07T04:15:08.459Z,10.30
2023-01-07T04:17:36.305Z,10.30
2023-01-07T04:20:07.740Z,10.40
2023-01-07T04:22:35.640Z,9.30
2023-01-07T04:25:03.530Z,10.30
2023-01-07T04:27:33.705Z,10.30
2023-01-07T04:30:01.616Z,10.20
2023-01-07T04:32:29.460Z,10.20
2023-01-07T04:34:57.337Z,10.20
2023-01-07T04:37:25.199Z,10.10
2023-01-07T04:39:53.119Z,10.10
2023-01-07T04:42:20.960Z,10.20
2023-01-07T04:44:50.199Z,10.10
2023-01-07T04:47:18.053Z,10.20
2023-01-07T04:49:45.911Z,10.20
2023-01-07T04:52:13.768Z,10.20
2023-01-07T04:54:41.638Z,10.20
2023-01-07T04:57:09.787Z,10.20
2023-01-07T04:59:37.616Z,10.20
2023-01-07T05:02:06.905Z,10.20
2023-01-07T05:04:34.844Z,10.20
2023-01-07T05:07:02.829Z,10.30
2023-01-07T05:09:30.659Z,10.70
2023-01-07T05:11:58.529Z,10.20
2023-01-07T05:14:28.243Z,10.20
2023-01-07T05:16:56.137Z,10.30
2023-01-07T05:19:25.436Z,10.30
2023-01-07T05:21:53.273Z,10.20
2023-01-07T05:24:21.177Z,10.70
2023-01-07T05:26:49.061Z,10.20
2023-01-07T05:29:16.941Z,10.20
2023-01-07T05:31:44.849Z,10.20
2023-01-07T05:34:12.745Z,10.30
2023-01-07T05:36:41.981Z,10.30
2023-01-07T05:39:10.483Z,10.30
2023-01-07T05:41:38.339Z,10.30
2023-01-07T05:44:06.264Z,10.30
2023-01-07T05:46:34.150Z,10.30
2023-01-07T05:49:02.042Z,10.30
2023-01-07T05:51:29.902Z,10.30
2023-01-07T05:53:59.109Z,10.40
2023-01-07T05:56:26.961Z,10.40
2023-01-07T05:58:54.843Z,10.30
2023-01-07T06:01:22.793Z,10.30
2023-01-07T06:03:50.694Z,10.30
2023-01-07T06:06:18.577Z,10.30
2023-01-07T06:08:46.446Z,10.30
2023-01-07T06:11:15.695Z,10.30
2023-01-07T06:13:43.504Z,10.30
2023-01-07T06:16:11.628Z,10.40
2023-01-07T06:18:39.506Z,10.30
2023-01-07T06:21:07.376Z,10.40
2023-01-07T06:23:35.248Z,10.30
2023-01-07T06:26:03.119Z,10.20
2023-01-07T06:28:32.398Z,10.20
2023-01-07T06:31:00.376Z,10.30
2023-01-07T06:33:28.307Z,10.30
2023-01-07T06:35:56.175Z,10.30
2023-01-07T06:38:24.054Z,10.30
2023-01-07T06:40:51.889Z,10.30
2023-01-07T06:43:19.770Z,10.30
2023-01-07T06:45:49.138Z,10.30
2023-01-07T06:48:16.994Z,10.30
2023-01-07T06:50:45.661Z,10.30
2023-01-07T06:53:13.759Z,10.30
2023-01-07T06:55:41.639Z,10.30
2023-01-07T06:58:09.479Z,10.40
2023-01-07T07:00:37.413Z,10.30
2023-01-07T07:03:06.663Z,10.30
2023-01-07T07:05:35.082Z,10.60
2023-01-07T07:08:04.260Z,10.40
2023-01-07T07:10:32.131Z,10.50
2023-01-07T07:13:00.020Z,10.60
2023-01-07T07:15:27.944Z,10.50
2023-01-07T07:17:55.820Z,10.40
2023-01-07T07:20:25.127Z,10.50
2023-01-07T07:22:53.007Z,10.50
2023-01-07T07:25:21.136Z,10.50
2023-01-07T07:27:49.031Z,10.50
2023-01-07T07:30:17.101Z,10.70
2023-01-07T07:32:45.138Z,10.50
2023-01-07T07:35:13.406Z,10.80
2023-01-07T07:37:42.684Z,10.70
2023-01-07T07:40:11.183Z,10.80
2023-01-07T07:43:10.753Z,10.50
2023-01-07T07:45:27.272Z,10.10
2023-01-07T07:47:55.155Z,10.60
2023-01-07T07:50:23.105Z,10.70
2023-01-07T07:55:26.177Z,10.50
2023-01-07T07:57:54.840Z,10.50
2023-01-07T08:00:22.770Z,10.50
2023-01-07T08:02:50.841Z,10.60
2023-01-07T08:05:18.887Z,10.50
2023-01-07T08:10:14.861Z,10.60
2023-01-07T08:12:44.097Z,10.80
2023-01-07T08:15:12.225Z,10.60
2023-01-07T08:20:08.905Z,10.60
2023-01-07T08:22:36.949Z,10.60
2023-01-07T08:25:04.991Z,10.60
2023-01-07T08:30:02.462Z,10.60
2023-01-07T08:32:30.309Z,10.60
2023-01-07T08:34:58.201Z,10.70
2023-01-07T08:37:26.148Z,10.70
2023-01-07T08:42:22.185Z,10.70
2023-01-07T08:44:50.323Z,10.70
2023-01-07T08:47:19.583Z,10.70
2023-01-07T08:49:47.428Z,10.70
2023-01-07T08:52:15.322Z,10.70
2023-01-07T08:57:13.533Z,10.70
2023-01-07T08:59:41.381Z,10.80
2023-01-07T09:02:11.995Z,10.90
2023-01-07T09:12:06.217Z,11.10
2023-01-07T09:14:34.294Z,11.10
2023-01-07T09:19:30.318Z,11.40
2023-01-07T09:21:58.321Z,11.60
2023-01-07T09:24:26.172Z,11.60
2023-01-07T09:26:54.033Z,11.90
2023-01-07T09:29:23.306Z,11.80
2023-01-07T09:31:51.230Z,12.10
2023-01-07T09:34:19.144Z,12.20
2023-01-07T09:39:15.299Z,12.20
2023-01-07T09:41:47.111Z,12.30
2023-01-07T09:44:18.128Z,12.30
2023-01-07T09:51:49.893Z,12.90
2023-01-07T09:54:21.153Z,13.00
2023-01-07T09:56:49.085Z,13.00
2023-01-07T09:59:18.600Z,13.10
2023-01-07T10:01:49.972Z,13.20
2023-01-07T10:04:24.472Z,13.20
2023-01-07T10:06:59.829Z,13.60
2023-01-07T10:12:03.107Z,13.30
2023-01-07T10:14:54.882Z,13.30
2023-01-07T10:17:29.595Z,13.40
2023-01-07T10:20:00.335Z,13.60
2023-01-07T10:22:31.703Z,14.10
2023-01-07T10:25:01.903Z,14.20
2023-01-07T10:27:31.601Z,14.20
2023-01-07T10:30:02.877Z,14.30
2023-01-07T10:32:32.697Z,14.30
2023-01-07T10:35:01.587Z,14.30
2023-01-07T10:37:31.349Z,14.50
2023-01-07T10:40:03.169Z,14.70
2023-01-07T10:42:34.055Z,14.60
2023-01-07T10:45:19.773Z,14.80
2023-01-07T10:47:56.518Z,15.00
2023-01-07T10:50:31.328Z,15.30
2023-01-07T10:53:05.452Z,15.10
2023-01-07T10:55:41.378Z,15.10
2023-01-07T10:58:10.326Z,15.00
2023-01-07T11:00:39.236Z,15.50
2023-01-07T11:03:14.198Z,15.60
2023-01-07T11:05:42.228Z,15.30
2023-01-07T11:08:14.987Z,15.40
2023-01-07T11:10:43.343Z,15.80
2023-01-07T11:13:15.195Z,16.00
2023-01-07T11:15:45.306Z,16.30
2023-01-07T11:18:14.432Z,16.10
2023-01-07T11:20:43.033Z,16.20
2023-01-07T11:23:28.579Z,16.40
2023-01-07T11:26:05.587Z,16.60
2023-01-07T11:28:34.619Z,16.50
2023-01-07T11:31:02.881Z,16.40
2023-01-07T11:34:03.419Z,16.40
2023-01-07T11:36:39.406Z,16.20
2023-01-07T11:39:11.474Z,16.30
2023-01-07T11:41:51.814Z,16.40
2023-01-07T11:44:19.634Z,16.30
2023-01-07T11:46:47.709Z,16.60
2023-01-07T11:49:21.973Z,16.30
2023-01-07T11:51:49.915Z,16.20
2023-01-07T11:54:21.819Z,16.30
2023-01-07T11:56:49.986Z,16.40
2023-01-07T11:59:26.848Z,17.10
2023-01-07T12:01:55.889Z,17.40
2023-01-07T12:04:24.802Z,17.00
2023-01-07T12:06:53.707Z,16.50
2023-01-07T12:09:27.910Z,16.20
2023-01-07T12:11:57.677Z,16.00
2023-01-07T12:14:27.959Z,16.10
2023-01-07T12:16:57.806Z,16.30
2023-01-07T12:19:38.580Z,15.90
2023-01-07T12:22:15.138Z,15.70
2023-01-07T12:24:51.066Z,15.60
2023-01-07T12:27:26.018Z,15.70
2023-01-07T12:29:59.096Z,15.20
2023-01-07T12:32:35.199Z,15.10
2023-01-07T12:35:14.667Z,15.60
2023-01-07T12:37:45.061Z,15.90
2023-01-07T12:40:19.686Z,15.90
2023-01-07T12:42:51.519Z,15.30
2023-01-07T12:45:22.774Z,15.30
2023-01-07T12:50:22.656Z,14.90
2023-01-07T12:52:51.722Z,15.00
2023-01-07T12:55:22.704Z,14.60
2023-01-07T13:00:21.703Z,14.30
2023-01-07T13:02:54.510Z,14.20
2023-01-07T13:05:24.749Z,14.00
2023-01-07T13:07:55.005Z,14.00
2023-01-07T13:10:26.557Z,14.10
2023-01-07T13:12:56.991Z,14.20
2023-01-07T13:15:27.644Z,14.10
2023-01-07T13:17:56.023Z,13.90
2023-01-07T13:20:38.441Z,14.10
2023-01-07T13:23:06.920Z,14.00
2023-01-07T13:25:42.977Z,14.10
2023-01-07T13:28:19.521Z,14.30
2023-01-07T13:30:50.279Z,14.20
2023-01-07T13:33:23.132Z,14.60
2023-01-07T13:35:58.922Z,14.70
2023-01-07T13:39:04.885Z,14.70
2023-01-07T13:41:58.219Z,14.90
2023-01-07T13:45:04.682Z,14.50
2023-01-07T13:47:57.064Z,14.30
2023-01-07T13:50:34.632Z,14.40
2023-01-07T13:53:05.630Z,14.40
2023-01-07T13:55:38.639Z,14.40
2023-01-07T13:58:43.479Z,14.20
2023-01-07T14:01:12.691Z,14.00
2023-01-07T14:03:49.708Z,13.70
2023-01-07T14:06:50.372Z,13.80
2023-01-07T14:09:32.328Z,13.40
2023-01-07T14:12:40.146Z,13.40
2023-01-07T14:15:42.459Z,13.40
2023-01-07T14:18:39.986Z,13.30
2023-01-07T14:21:19.276Z,13.20
2023-01-07T14:23:58.379Z,13.10
2023-01-07T14:26:34.847Z,13.00
2023-01-07T14:29:21.590Z,12.90
2023-01-07T14:31:50.839Z,12.80
2023-01-07T14:34:21.863Z,12.80
2023-01-07T14:37:11.594Z,12.80
2023-01-07T14:39:40.968Z,12.80
2023-01-07T14:42:41.321Z,12.60
2023-01-07T14:45:45.939Z,12.70
2023-01-07T14:48:34.528Z,12.70
2023-01-07T14:51:34.346Z,12.60
2023-01-07T14:54:41.460Z,12.50
2023-01-07T14:57:24.578Z,12.50
2023-01-07T15:00:23.666Z,12.40
2023-01-07T15:03:30.452Z,12.50
2023-01-07T15:06:12.195Z,12.50
2023-01-07T15:09:05.249Z,12.40
2023-01-07T15:11:52.886Z,12.40
2023-01-07T15:14:44.275Z,12.40
2023-01-07T15:17:15.305Z,12.40
2023-01-07T15:19:44.600Z,12.30
2023-01-07T15:22:38.417Z,12.30
2023-01-07T15:25:16.736Z,12.30
2023-01-07T15:27:53.823Z,12.20
2023-01-07T15:30:37.929Z,12.20
2023-01-07T15:33:20.571Z,12.20
2023-01-07T15:35:48.730Z,12.20
2023-01-07T15:38:29.901Z,12.10
2023-01-07T15:40:59.978Z,12.10
2023-01-07T15:43:31.014Z,12.00
2023-01-07T15:46:02.071Z,12.00
2023-01-07T15:48:30.299Z,11.90
2023-01-07T15:51:00.055Z,11.80
2023-01-07T15:53:30.480Z,11.80
2023-01-07T15:56:03.144Z,11.80
2023-01-07T15:58:36.334Z,11.80
2023-01-07T16:01:05.632Z,11.80
2023-01-07T16:03:37.915Z,11.70
2023-01-07T16:06:22.300Z,11.80
2023-01-07T16:08:52.221Z,11.70
2023-01-07T16:11:25.257Z,11.60
2023-01-07T16:13:57.179Z,11.60
2023-01-07T16:16:25.390Z,11.50
2023-01-07T16:18:57.343Z,11.40
2023-01-07T16:21:28.295Z,11.30
2023-01-07T16:23:58.074Z,11.20
2023-01-07T16:26:32.724Z,11.20
2023-01-07T16:29:06.694Z,11.20
2023-01-07T16:31:36.428Z,11.10
2023-01-07T16:34:19.835Z,11.00
2023-01-07T16:36:48.023Z,10.90
2023-01-07T16:39:23.282Z,10.90
2023-01-07T16:42:11.540Z,10.90
2023-01-07T16:45:10.795Z,10.80
2023-01-07T16:47:38.842Z,10.80
2023-01-07T16:50:37.214Z,10.80
2023-01-07T16:53:17.230Z,10.80
2023-01-07T16:55:52.601Z,10.70
2023-01-07T16:58:30.003Z,10.70
2023-01-07T17:01:01.096Z,10.70
2023-01-07T17:03:31.082Z,10.60
2023-01-07T17:06:05.415Z,10.60
2023-01-07T17:08:34.749Z,10.70
2023-01-07T17:11:09.203Z,10.70
2023-01-07T17:13:39.725Z,10.70
2023-01-07T17:16:24.139Z,10.70
2023-01-07T17:18:52.932Z,10.70
2023-01-07T17:21:47.846Z,10.60
2023-01-07T17:24:46.850Z,10.60
2023-01-07T17:27:24.525Z,10.60
2023-01-07T17:29:53.143Z,10.60
2023-01-07T17:32:21.583Z,10.60
2023-01-07T17:34:49.717Z,10.60
2023-01-07T17:37:18.533Z,10.60
2023-01-07T17:39:46.725Z,10.70
2023-01-07T17:42:46.897Z,10.70
2023-01-07T17:45:19.542Z,10.70
2023-01-07T17:47:49.589Z,10.60
2023-01-07T17:50:19.094Z,10.60
2023-01-07T17:52:48.860Z,10.60
2023-01-07T17:55:19.007Z,10.70
2023-01-07T17:57:48.453Z,10.70
2023-01-07T18:00:19.419Z,10.60
2023-01-07T18:02:48.379Z,10.70
2023-01-07T18:05:18.561Z,10.70
2023-01-07T18:07:46.683Z,10.70
2023-01-07T18:10:16.688Z,10.70
2023-01-07T18:12:44.712Z,10.70
2023-01-07T18:15:19.474Z,10.70
2023-01-07T18:17:47.879Z,10.70
2023-01-07T18:20:17.354Z,10.70
2023-01-07T18:22:45.932Z,10.80
2023-01-07T18:25:17.936Z,10.70
2023-01-07T18:27:46.620Z,10.70
2023-01-07T18:30:18.805Z,10.80
2023-01-07T18:32:47.188Z,10.70
2023-01-07T18:35:15.724Z,10.70
2023-01-07T18:37:44.207Z,10.80
2023-01-07T18:40:12.807Z,10.80
2023-01-07T18:42:40.932Z,10.80
2023-01-07T18:45:09.648Z,10.80
2023-01-07T18:47:39.194Z,10.70
2023-01-07T18:50:09.040Z,10.70
2023-01-07T18:52:39.132Z,10.80
2023-01-07T18:55:08.234Z,10.70
2023-01-07T18:57:36.746Z,10.80
2023-01-07T19:00:05.969Z,10.80
2023-01-07T19:02:34.088Z,10.70
2023-01-07T19:05:03.808Z,10.70
2023-01-07T19:07:31.930Z,10.70
2023-01-07T19:10:00.067Z,10.70
2023-01-07T19:12:28.947Z,10.60
2023-01-07T19:14:57.049Z,10.50
2023-01-07T19:17:25.258Z,10.50
2023-01-07T19:19:53.345Z,10.50
2023-01-07T19:22:22.793Z,10.40
2023-01-07T19:24:50.992Z,10.40
2023-01-07T19:27:19.096Z,10.40
2023-01-07T19:29:47.200Z,10.40
2023-01-07T19:32:15.370Z,10.40
2023-01-07T19:34:43.535Z,10.40
2023-01-07T19:37:11.599Z,10.50
2023-01-07T19:39:41.182Z,10.40
2023-01-07T19:42:09.947Z,10.40
2023-01-07T19:44:38.457Z,10.40
2023-01-07T19:47:06.635Z,10.40
2023-01-07T19:49:36.078Z,10.40
2023-01-07T19:52:04.177Z,10.50
2023-01-07T19:54:32.299Z,10.50
2023-01-07T19:57:01.904Z,10.50
2023-01-07T19:59:31.312Z,10.50
2023-01-07T20:01:59.633Z,10.50
2023-01-07T20:04:27.789Z,10.50
2023-01-07T20:06:55.940Z,10.50
2023-01-07T20:09:24.045Z,10.50
2023-01-07T20:11:52.156Z,10.50
2023-01-07T20:14:21.620Z,10.50
2023-01-07T20:16:49.724Z,10.50
2023-01-07T20:19:17.867Z,10.60
2023-01-07T20:21:46.685Z,10.50
2023-01-07T20:24:14.910Z,10.50
2023-01-07T20:26:42.983Z,10.60
2023-01-07T20:29:11.108Z,10.50
2023-01-07T20:31:41.031Z,10.60
2023-01-07T20:34:09.116Z,10.60
2023-01-07T20:36:37.227Z,10.60
2023-01-07T20:39:06.384Z,10.60
2023-01-07T20:41:36.029Z,10.60
2023-01-07T20:44:06.090Z,10.70
2023-01-07T20:46:34.863Z,10.70
2023-01-07T20:49:04.513Z,10.70
2023-01-07T20:51:33.917Z,10.60
2023-01-07T20:54:02.051Z,10.70
2023-01-07T20:56:32.340Z,10.70
2023-01-07T20:59:01.138Z,10.70
2023-01-07T21:01:29.702Z,10.70
2023-01-07T21:03:58.021Z,10.70
2023-01-07T21:06:27.441Z,10.70
2023-01-07T21:08:55.511Z,10.70
2023-01-07T21:11:25.539Z,10.70
2023-01-07T21:13:56.120Z,10.80
2023-01-07T21:16:25.177Z,10.80
2023-01-07T21:18:53.337Z,10.80
2023-01-07T21:21:25.071Z,10.80
2023-01-07T21:23:55.235Z,10.80
2023-01-07T21:26:23.953Z,10.80
2023-01-07T21:28:55.727Z,10.80
2023-01-07T21:31:24.617Z,10.80
2023-01-07T21:33:55.081Z,10.80
2023-01-07T21:36:23.747Z,10.80
2023-01-07T21:38:56.135Z,10.80
2023-01-07T21:41:25.596Z,10.80
2023-01-07T21:43:54.019Z,10.70
2023-01-07T21:46:22.990Z,10.70
2023-01-07T21:48:51.811Z,10.70
2023-01-07T21:51:22.230Z,10.70
2023-01-07T21:53:52.407Z,10.70
2023-01-07T21:56:22.210Z,10.60
2023-01-07T21:58:50.909Z,10.70
2023-01-07T22:01:20.069Z,10.70
2023-01-07T22:03:50.169Z,10.70
2023-01-07T22:06:21.450Z,10.70
2023-01-07T22:08:50.525Z,10.70
2023-01-07T22:11:19.194Z,10.70
2023-01-07T22:13:52.043Z,10.70
2023-01-07T22:16:20.417Z,10.70
2023-01-07T22:18:48.729Z,10.70
2023-01-07T22:21:17.089Z,10.70
2023-01-07T22:23:46.016Z,10.70
2023-01-07T22:26:15.517Z,10.80
2023-01-07T22:28:45.003Z,10.80
2023-01-07T22:31:19.529Z,10.80
2023-01-07T22:33:47.727Z,10.80
2023-01-07T22:36:19.663Z,10.80
2023-01-07T22:38:47.818Z,10.80
2023-01-07T22:41:16.004Z,10.80
2023-01-07T22:43:44.285Z,10.80
2023-01-07T22:46:18.937Z,10.90
2023-01-07T22:48:47.128Z,10.90
2023-01-07T22:51:20.035Z,10.90
2023-01-07T22:53:48.779Z,10.90
2023-01-07T22:56:17.175Z,11.00
2023-01-07T22:58:45.265Z,10.90
2023-01-07T23:01:16.233Z,11.00
2023-01-07T23:03:45.455Z,11.00
2023-01-07T23:06:15.730Z,11.00
2023-01-07T23:08:44.420Z,11.00
2023-01-07T23:11:32.765Z,11.00
2023-01-07T23:14:00.918Z,11.00
2023-01-07T23:16:30.438Z,11.00
2023-01-07T23:18:58.624Z,11.00
2023-01-07T23:21:26.938Z,11.00
2023-01-07T23:23:55.025Z,10.90
2023-01-07T23:26:23.072Z,10.90
2023-01-07T23:28:51.210Z,10.90
2023-01-07T23:31:19.338Z,10.80
2023-01-07T23:33:48.807Z,10.80
2023-01-07T23:36:16.890Z,10.80
2023-01-07T23:38:44.968Z,10.80
2023-01-07T23:41:13.680Z,10.90
2023-01-07T23:43:41.806Z,10.80
2023-01-07T23:46:10.225Z,10.80
2023-01-07T23:48:39.307Z,10.80
2023-01-07T23:51:10.241Z,10.80
2023-01-07T23:53:38.952Z,10.70
2023-01-07T23:56:08.494Z,10.70
2023-01-07T23:58:38.192Z,10.70
